Atlantic - Newfoundland: Past 24 Hour Conditions

 

St. John's Int'l Airport

02:30 AM NDT 21 September 2014
This table is a summary of hourly weather conditions for the past 24 hours.
Date / Time
(NDT)
Wind(knots) Conditions Visibility(km) Pressure(kPa) Air tempC) Relative humidity(%) Dew pointC)
21 September 2014
2:30 WSW 19 gust 34 Mostly Cloudy 24 102.0 13 78 9
1:30 WSW 24 gust 33 Mostly Cloudy 24 102.1 12 77 9
0:30 WSW 20 gust 26 Mostly Cloudy 24 102.1 12 76 8
20 September 2014
23:30 WSW 22 gust 31 Mostly Cloudy 24 102.1 12 76 8
22:30 WSW 23 gust 32 Mostly Cloudy 24 102.2 11 76 7
21:30 WSW 17 gust 32 Cloudy 24 102.2 11 74 7
20:30 WSW 27 gust 36 Mostly Cloudy 24 102.2 12 72 7
19:30 WSW 23 gust 37 Mostly Cloudy 24 102.2 11 73 7
18:30 WSW 24 gust 33 Mostly Cloudy 24 102.2 12 69 6
17:30 SW 19 gust 32 Mostly Cloudy 24 102.2 12 64 6
16:30 WSW 23 gust 31 Mostly Cloudy 24 102.2 13 57 5
15:30 WSW 23 gust 32 Mostly Cloudy 24 102.2 14 55 5
14:30 WSW 23 gust 33 Mostly Cloudy 24 102.3 13 56 5
13:30 WSW 20 gust 26 Partly Cloudy 24 102.3 13 55 5
12:30 W 18 gust 23 Mainly Sunny 24 102.3 13 54 4
11:30 WNW 18 gust 26 Mainly Sunny 24 102.4 12 58 4
10:30 WNW 18 gust 24 Mainly Sunny 24 102.4 10 62 3
9:30 WNW 17 gust 26 Partly Cloudy 24 102.4 9 68 4
8:30 WNW 16 gust 24 Partly Cloudy 24 102.3 8 74 4
7:30 WNW 15 gust 23 Mainly Sunny 24 102.3 7 76 3
6:30 WNW 15 gust 26 Mainly Clear 24 102.1 6 77 3
5:30 WNW 23 gust 32 Mainly Clear 24 102.0 6 76 2
4:30 WNW 19 gust 26 Mainly Clear 24 101.9 6 73 1
3:30 WNW 19 gust 25 Clear 24 101.8 6 70 1
2:30 WNW 20 Clear 24 101.8 6 61 -1
 
Map of Atlantic - Newfoundland marine weather areas Southwestern Grand Banks - 44138 Banquereau - 44139 Tail of the Bank - 44140 Nickerson Bank - 44251 Northeast Burgeo Bank - 44255 Blanc-Sablon Airport Cap Whittle Chevery Natashquan Airport Heath Point Miscou Island Grand Étang Ingonish Beach North Mountain St.Paul Island J.A. Douglas McCurdy Sydney Airport Charlottetown Airport East Point North Cape Argentia Bonavista Burgeo Cape Race Corner Brook Daniel's Harbour Englee Ferolle Point La Scie Port aux Basques Rocky Harbour Sagona Island St. Anthony Airport St. John's Int'l Airport St. Lawrence Stephenville Airport Twillingate Winterland Wreckhouse Cartwright Airport Mary's Harbour Grates Cove Pool's Island Marticot Island Long Pond Îles de la Madeleine Airport
Legend: buoyBuoy land stationLand Station